createdAt,value
2018-12-23T00:00:07.920Z,88.17
2018-12-23T00:01:07.920Z,88.06
2018-12-23T00:02:07.885Z,87.96
2018-12-23T00:03:07.898Z,88.06
2018-12-23T00:04:07.858Z,88.12
2018-12-23T00:05:11.591Z,88.17
2018-12-23T00:06:07.869Z,88.23
2018-12-23T00:07:07.835Z,88.06
2018-12-23T00:08:07.824Z,87.96
2018-12-23T00:09:07.816Z,87.96
2018-12-23T00:10:07.799Z,88.17
2018-12-23T00:11:07.808Z,87.71
2018-12-23T00:12:07.785Z,87.96
2018-12-23T00:13:07.804Z,87.96
2018-12-23T00:14:07.760Z,87.75
2018-12-23T00:15:07.741Z,88.17
2018-12-23T00:16:07.733Z,87.96
2018-12-23T00:17:07.721Z,88.47
2018-12-23T00:18:07.714Z,88.47
2018-12-23T00:19:07.723Z,88.17
2018-12-23T00:20:07.691Z,88.17
2018-12-23T00:21:07.672Z,87.96
2018-12-23T00:22:07.663Z,88.37
2018-12-23T00:23:07.655Z,87.96
2018-12-23T00:24:07.663Z,88.37
2018-12-23T00:25:07.639Z,88.06
2018-12-23T00:26:07.655Z,87.85
2018-12-23T00:27:07.615Z,88.47
2018-12-23T00:28:07.691Z,88.37
2018-12-23T00:29:07.598Z,88.47
2018-12-23T00:30:07.610Z,88.57
2018-12-23T00:31:07.561Z,87.96
2018-12-23T00:32:07.553Z,88.06
2018-12-23T00:33:07.542Z,88.37
2018-12-23T00:34:07.558Z,88.27
2018-12-23T00:35:07.518Z,88.98
2018-12-23T00:36:07.518Z,88.06
2018-12-23T00:37:07.521Z,88.57
2018-12-23T00:38:07.487Z,88.37
2018-12-23T00:39:07.485Z,88.47
2018-12-23T00:40:07.478Z,88.17
2018-12-23T00:41:07.453Z,88.47
2018-12-23T00:42:07.495Z,88.47
2018-12-23T00:43:07.465Z,88.47
2018-12-23T00:44:07.430Z,88.57
2018-12-23T00:45:07.458Z,88.06
2018-12-23T00:46:07.419Z,88.78
2018-12-23T00:47:07.389Z,88.37
2018-12-23T00:48:07.376Z,88.37
2018-12-23T00:49:07.366Z,88.68
2018-12-23T00:50:07.351Z,88.68
2018-12-23T00:51:07.368Z,88.98
2018-12-23T00:52:07.331Z,88.78
2018-12-23T00:53:07.329Z,88.98
2018-12-23T00:54:07.313Z,89.09
2018-12-23T00:55:07.300Z,88.98
2018-12-23T00:56:07.313Z,88.98
2018-12-23T00:57:07.288Z,89.09
2018-12-23T00:58:07.266Z,88.89
2018-12-23T00:59:07.256Z,89.50
2018-12-23T01:00:07.244Z,89.40
2018-12-23T01:01:07.304Z,89.40
2018-12-23T01:02:07.245Z,89.40
2018-12-23T01:03:07.217Z,88.98
2018-12-23T01:04:07.214Z,89.19
2018-12-23T01:05:07.194Z,89.09
2018-12-23T01:06:07.186Z,89.19
2018-12-23T01:07:07.190Z,89.19
2018-12-23T01:08:07.185Z,89.19
2018-12-23T01:09:07.148Z,89.19
2018-12-23T01:10:07.136Z,88.98
2018-12-23T01:11:07.133Z,89.09
2018-12-23T01:12:07.117Z,89.29
2018-12-23T01:13:07.125Z,89.29
2018-12-23T01:14:07.093Z,89.50
2018-12-23T01:15:07.080Z,89.29
2018-12-23T01:16:07.075Z,89.19
2018-12-23T01:17:07.059Z,89.19
2018-12-23T01:18:07.164Z,89.19
2018-12-23T01:19:07.066Z,89.60
2018-12-23T01:20:07.022Z,89.19
2018-12-23T01:21:07.012Z,89.70
2018-12-23T01:22:07.748Z,89.40
2018-12-23T01:23:06.992Z,89.50
2018-12-23T01:24:07.006Z,89.70
2018-12-23T01:25:07.062Z,89.29
2018-12-23T01:26:06.955Z,89.50
2018-12-23T01:27:06.954Z,89.50
2018-12-23T01:28:06.939Z,89.50
2018-12-23T01:29:06.928Z,89.70
2018-12-23T01:30:06.918Z,89.50
2018-12-23T01:31:06.936Z,89.64
2018-12-23T01:32:06.890Z,89.44
2018-12-23T01:33:06.902Z,88.78
2018-12-23T01:34:06.873Z,89.75
2018-12-23T01:35:06.859Z,89.54
2018-12-23T01:36:06.854Z,89.75
2018-12-23T01:37:06.863Z,89.54
2018-12-23T01:38:06.832Z,89.54
2018-12-23T01:39:06.815Z,89.64
2018-12-23T01:40:06.808Z,89.54
2018-12-23T01:41:06.902Z,89.44
2018-12-23T01:42:06.793Z,89.75
2018-12-23T01:43:06.770Z,89.64
2018-12-23T01:44:06.761Z,89.44
2018-12-23T01:45:06.748Z,89.75
2018-12-23T01:46:06.740Z,89.85
2018-12-23T01:47:06.749Z,90.16
2018-12-23T01:48:06.712Z,90.06
2018-12-23T01:49:06.706Z,90.26
2018-12-23T01:50:06.693Z,90.06
2018-12-23T01:51:06.687Z,90.06
2018-12-23T01:52:06.673Z,90.30
2018-12-23T01:53:06.684Z,90.61
2018-12-23T01:54:06.653Z,90.51
2018-12-23T01:55:06.647Z,90.09
2018-12-23T01:56:06.634Z,90.30
2018-12-23T01:57:06.639Z,90.20
2018-12-23T01:58:06.629Z,90.20
2018-12-23T01:59:06.599Z,91.06
2018-12-23T02:00:06.588Z,90.51
2018-12-23T02:01:06.571Z,90.96
2018-12-23T02:02:07.239Z,90.41
2018-12-23T02:03:06.576Z,91.17
2018-12-23T02:04:06.545Z,91.33
2018-12-23T02:05:06.607Z,91.58
2018-12-23T02:06:06.516Z,90.96
2018-12-23T02:07:06.509Z,91.17
2018-12-23T02:08:06.498Z,91.27
2018-12-23T02:09:06.509Z,91.27
2018-12-23T02:10:06.473Z,91.99
2018-12-23T02:11:06.465Z,91.68
2018-12-23T02:12:06.456Z,91.47
2018-12-23T02:13:06.443Z,91.38
2018-12-23T02:14:06.429Z,91.78
2018-12-23T02:15:06.445Z,91.68
2018-12-23T02:16:06.413Z,91.17
2018-12-23T02:17:06.399Z,91.68
2018-12-23T02:18:06.572Z,91.78
2018-12-23T02:19:06.375Z,92.50
2018-12-23T02:20:06.390Z,91.78
2018-12-23T02:21:06.418Z,92.30
2018-12-23T02:22:06.343Z,91.89
2018-12-23T02:23:06.330Z,91.99
2018-12-23T02:24:06.320Z,92.20
2018-12-23T02:25:06.324Z,92.03
2018-12-23T02:26:06.329Z,92.50
2018-12-23T02:27:06.285Z,92.20
2018-12-23T02:28:06.299Z,92.44
2018-12-23T02:29:06.268Z,92.10
2018-12-23T02:30:06.265Z,91.83
2018-12-23T02:31:06.263Z,92.40
2018-12-23T02:32:06.235Z,92.03
2018-12-23T02:33:06.241Z,92.34
2018-12-23T02:34:06.207Z,92.03
2018-12-23T02:35:06.255Z,92.03
2018-12-23T02:36:06.213Z,92.10
2018-12-23T02:37:06.294Z,92.24
2018-12-23T02:38:06.162Z,92.76
2018-12-23T02:39:06.163Z,92.82
2018-12-23T02:40:06.171Z,92.65
2018-12-23T02:41:06.133Z,92.76
2018-12-23T02:42:06.148Z,93.16
2018-12-23T02:43:06.150Z,92.76
2018-12-23T02:44:06.099Z,92.55
2018-12-23T02:45:06.086Z,92.55
2018-12-23T02:46:06.082Z,93.06
2018-12-23T02:47:06.073Z,92.61
2018-12-23T02:48:06.058Z,92.20
2018-12-23T02:49:06.070Z,92.24
2018-12-23T02:50:06.032Z,92.44
2018-12-23T02:51:06.022Z,93.06
2018-12-23T02:52:06.009Z,93.16
2018-12-23T02:53:06.001Z,92.96
2018-12-23T02:54:06.009Z,92.71
2018-12-23T02:55:05.971Z,92.50
2018-12-23T02:56:05.960Z,92.92
2018-12-23T02:57:05.956Z,92.44
2018-12-23T02:58:06.114Z,92.86
2018-12-23T02:59:05.954Z,92.55
2018-12-23T03:00:05.944Z,92.55
2018-12-23T03:01:05.923Z,92.44
2018-12-23T03:02:05.902Z,92.65
2018-12-23T03:03:05.904Z,92.76
2018-12-23T03:04:05.907Z,92.86
2018-12-23T03:05:05.861Z,93.06
2018-12-23T03:06:06.496Z,92.96
2018-12-23T03:07:05.852Z,93.27
2018-12-23T03:08:05.847Z,92.76
2018-12-23T03:09:05.848Z,93.27
2018-12-23T03:10:05.816Z,92.96
2018-12-23T03:11:05.797Z,92.76
2018-12-23T03:12:05.798Z,93.06
2018-12-23T03:13:05.776Z,93.54
2018-12-23T03:14:05.923Z,93.43
2018-12-23T03:15:05.755Z,93.02
2018-12-23T03:16:05.741Z,93.23
2018-12-23T03:17:05.753Z,93.23
2018-12-23T03:18:05.728Z,93.02
2018-12-23T03:19:05.715Z,93.33
2018-12-23T03:20:05.726Z,93.23
2018-12-23T03:21:05.684Z,93.23
2018-12-23T03:22:05.682Z,93.27
2018-12-23T03:23:05.670Z,93.68
2018-12-23T03:24:05.659Z,93.23
2018-12-23T03:25:05.655Z,93.64
2018-12-23T03:26:05.670Z,93.43
2018-12-23T03:27:05.617Z,93.54
2018-12-23T03:28:05.612Z,93.33
2018-12-23T03:29:05.615Z,93.43
2018-12-23T03:30:05.597Z,93.33
2018-12-23T03:31:05.585Z,93.43
2018-12-23T03:32:05.609Z,93.84
2018-12-23T03:33:05.639Z,93.74
2018-12-23T03:34:05.546Z,93.64
2018-12-23T03:35:05.530Z,93.54
2018-12-23T03:36:14.779Z,92.92
2018-12-23T03:37:06.531Z,93.33
2018-12-23T03:38:05.499Z,93.64
2018-12-23T03:39:05.495Z,93.54
2018-12-23T03:40:05.521Z,93.54
2018-12-23T03:41:05.516Z,93.64
2018-12-23T03:42:05.472Z,93.64
2018-12-23T03:43:05.437Z,93.33
2018-12-23T03:44:05.433Z,93.64
2018-12-23T03:45:05.449Z,93.64
2018-12-23T03:46:05.416Z,93.02
2018-12-23T03:47:05.398Z,93.43
2018-12-23T03:48:05.392Z,93.33
2018-12-23T03:49:05.371Z,93.12
2018-12-23T03:50:05.367Z,93.02
2018-12-23T03:51:05.375Z,93.02
2018-12-23T03:52:05.346Z,92.92
2018-12-23T03:53:05.338Z,92.71
2018-12-23T03:54:05.361Z,93.23
2018-12-23T03:55:05.316Z,92.71
2018-12-23T03:56:05.325Z,93.23
2018-12-23T03:57:05.302Z,93.23
2018-12-23T03:58:05.280Z,92.55
2018-12-23T03:59:05.378Z,92.65
2018-12-23T04:00:05.252Z,92.96
2018-12-23T04:01:05.242Z,93.27
2018-12-23T04:02:05.251Z,92.76
2018-12-23T04:03:05.333Z,92.96
2018-12-23T04:04:05.215Z,93.06
2018-12-23T04:05:05.204Z,93.16
2018-12-23T04:06:05.189Z,93.43
2018-12-23T04:07:05.207Z,93.64
2018-12-23T04:08:05.170Z,93.23
2018-12-23T04:09:05.163Z,93.27
2018-12-23T04:10:05.148Z,93.27
2018-12-23T04:11:05.136Z,93.33
2018-12-23T04:12:05.123Z,93.27
2018-12-23T04:13:05.672Z,93.23
2018-12-23T04:14:05.113Z,93.27
2018-12-23T04:15:05.087Z,93.58
2018-12-23T04:16:05.090Z,93.27
2018-12-23T04:17:05.070Z,93.12
2018-12-23T04:18:05.059Z,93.37
2018-12-23T04:19:05.074Z,93.06
2018-12-23T04:20:05.038Z,93.48
2018-12-23T04:21:05.023Z,93.68
2018-12-23T04:22:05.019Z,93.79
2018-12-23T04:23:05.005Z,93.37
2018-12-23T04:24:05.020Z,93.79
2018-12-23T04:25:04.985Z,93.48
2018-12-23T04:26:04.975Z,93.58
2018-12-23T04:27:04.964Z,93.48
2018-12-23T04:28:04.958Z,93.68
2018-12-23T04:29:04.936Z,93.48
2018-12-23T04:30:04.958Z,93.48
2018-12-23T04:31:04.912Z,93.58
2018-12-23T04:32:04.925Z,93.99
2018-12-23T04:33:04.892Z,94.20
2018-12-23T04:34:04.926Z,93.99
2018-12-23T04:35:04.874Z,93.99
2018-12-23T04:36:04.869Z,94.05
2018-12-23T04:37:04.948Z,94.20
2018-12-23T04:38:04.840Z,93.99
2018-12-23T04:39:04.856Z,94.51
2018-12-23T04:40:04.819Z,93.88
2018-12-23T04:41:04.800Z,94.60
2018-12-23T04:42:04.799Z,94.30
2018-12-23T04:43:04.783Z,94.20
2018-12-23T04:44:04.768Z,94.40
2018-12-23T04:45:04.791Z,94.40
2018-12-23T04:46:04.747Z,94.40
2018-12-23T04:47:04.733Z,94.51
2018-12-23T04:48:04.727Z,94.30
2018-12-23T04:49:04.724Z,94.40
2018-12-23T04:50:04.711Z,94.30
2018-12-23T04:51:04.737Z,94.51
2018-12-23T04:52:04.677Z,94.60
2018-12-23T04:53:04.682Z,94.60
2018-12-23T04:54:04.657Z,94.40
2018-12-23T04:55:04.654Z,94.30
2018-12-23T04:56:04.690Z,94.40
2018-12-23T04:57:04.632Z,94.40
2018-12-23T04:58:04.611Z,94.30
2018-12-23T04:59:04.605Z,94.30
2018-12-23T05:00:04.591Z,94.30
2018-12-23T05:01:04.620Z,94.60
2018-12-23T05:02:04.572Z,94.60
2018-12-23T05:03:04.556Z,94.40
2018-12-23T05:04:04.545Z,94.51
2018-12-23T05:05:04.536Z,94.40
2018-12-23T05:06:04.530Z,94.40
2018-12-23T05:07:04.536Z,94.51
2018-12-23T05:08:04.512Z,94.51
2018-12-23T05:09:05.270Z,94.30
2018-12-23T05:10:04.487Z,94.60
2018-12-23T05:11:04.474Z,94.30
2018-12-23T05:12:04.468Z,94.30
2018-12-23T05:13:04.486Z,94.56
2018-12-23T05:14:04.440Z,94.51
2018-12-23T05:15:04.427Z,94.40
2018-12-23T05:16:04.420Z,94.81
2018-12-23T05:17:04.404Z,94.60
2018-12-23T05:18:04.398Z,94.46
2018-12-23T05:19:04.407Z,94.60
2018-12-23T05:20:04.371Z,94.15
2018-12-23T05:21:04.362Z,94.56
2018-12-23T05:22:04.359Z,94.56
2018-12-23T05:23:04.372Z,94.60
2018-12-23T05:24:04.339Z,94.26
2018-12-23T05:25:04.319Z,94.51
2018-12-23T05:26:04.312Z,94.81
2018-12-23T05:27:04.292Z,94.81
2018-12-23T05:28:04.299Z,94.20
2018-12-23T05:29:04.293Z,94.30
2018-12-23T05:30:04.336Z,94.15
2018-12-23T05:31:04.252Z,94.30
2018-12-23T05:32:04.244Z,94.15
2018-12-23T05:33:04.268Z,94.40
2018-12-23T05:34:04.245Z,94.40
2018-12-23T05:35:04.209Z,94.71
2018-12-23T05:36:04.196Z,94.60
2018-12-23T05:37:04.183Z,94.56
2018-12-23T05:38:04.172Z,94.56
2018-12-23T05:39:04.159Z,94.30
2018-12-23T05:40:04.177Z,94.20
2018-12-23T05:41:04.149Z,93.99
2018-12-23T05:42:04.131Z,94.20
2018-12-23T05:43:04.119Z,94.30
2018-12-23T05:44:04.109Z,94.36
2018-12-23T05:45:04.126Z,94.09
2018-12-23T05:46:04.158Z,94.46
2018-12-23T05:47:04.070Z,94.05
2018-12-23T05:48:04.071Z,94.30
2018-12-23T05:49:04.143Z,94.26
2018-12-23T05:50:04.043Z,94.05
2018-12-23T05:51:04.062Z,94.20
2018-12-23T05:52:04.063Z,94.09
2018-12-23T05:53:04.010Z,94.15
2018-12-23T05:54:04.002Z,94.26
2018-12-23T05:55:03.987Z,94.26
2018-12-23T05:56:04.020Z,94.36
2018-12-23T05:57:03.962Z,94.26
2018-12-23T05:58:03.950Z,94.26
2018-12-23T05:59:03.950Z,94.26
2018-12-23T06:00:03.929Z,93.95
2018-12-23T06:01:03.934Z,94.56
2018-12-23T06:02:04.018Z,94.67
2018-12-23T06:03:03.914Z,94.46
2018-12-23T06:04:03.889Z,94.15
2018-12-23T06:05:03.911Z,94.26
2018-12-23T06:06:03.865Z,94.36
2018-12-23T06:07:03.853Z,94.77
2018-12-23T06:08:03.872Z,94.56
2018-12-23T06:09:05.402Z,94.36
2018-12-23T06:10:03.826Z,94.77
2018-12-23T06:11:03.812Z,94.77
2018-12-23T06:12:03.799Z,94.77
2018-12-23T06:13:03.830Z,94.77
2018-12-23T06:14:03.807Z,94.46
2018-12-23T06:15:03.769Z,94.15
2018-12-23T06:16:03.764Z,94.31
2018-12-23T06:17:03.757Z,94.77
2018-12-23T06:18:03.732Z,94.56
2018-12-23T06:19:03.750Z,94.77
2018-12-23T06:20:03.744Z,94.56
2018-12-23T06:21:03.698Z,94.56
2018-12-23T06:22:03.689Z,94.52
2018-12-23T06:23:03.681Z,94.56
2018-12-23T06:24:03.666Z,94.56
2018-12-23T06:25:03.664Z,94.67
2018-12-23T06:26:03.816Z,94.46
2018-12-23T06:27:03.628Z,94.11
2018-12-23T06:28:03.631Z,94.42
2018-12-23T06:29:03.659Z,94.15
2018-12-23T06:30:03.606Z,94.05
2018-12-23T06:31:03.584Z,94.42
2018-12-23T06:32:03.597Z,94.31
2018-12-23T06:33:03.565Z,94.73
2018-12-23T06:34:03.551Z,94.11
2018-12-23T06:35:03.542Z,94.31
2018-12-23T06:36:03.529Z,94.56
2018-12-23T06:37:10.034Z,94.36
2018-12-23T06:38:04.528Z,94.56
2018-12-23T06:39:03.504Z,93.80
2018-12-23T06:40:03.487Z,93.74
2018-12-23T06:41:03.479Z,94.42
2018-12-23T06:42:03.582Z,94.52
2018-12-23T06:43:03.457Z,93.95
2018-12-23T06:44:03.449Z,93.90
2018-12-23T06:45:03.571Z,93.90
2018-12-23T06:46:03.422Z,93.80
2018-12-23T06:47:03.408Z,93.49
2018-12-23T06:48:03.422Z,93.80
2018-12-23T06:49:03.388Z,93.59
2018-12-23T06:50:03.380Z,94.01
2018-12-23T06:51:03.368Z,93.90
2018-12-23T06:52:03.372Z,93.90
2018-12-23T06:53:03.375Z,93.90
2018-12-23T06:54:03.332Z,94.31
2018-12-23T06:55:03.318Z,94.21
2018-12-23T06:56:03.307Z,94.26
2018-12-23T06:57:03.299Z,94.21
2018-12-23T06:58:03.293Z,94.01
2018-12-23T06:59:03.310Z,94.21
2018-12-23T07:00:03.266Z,94.21
2018-12-23T07:01:03.253Z,94.01
2018-12-23T07:02:03.258Z,94.11
2018-12-23T07:03:03.228Z,94.11
2018-12-23T07:04:03.216Z,94.11
2018-12-23T07:05:03.243Z,94.31
2018-12-23T07:06:03.221Z,94.11
2018-12-23T07:07:03.200Z,94.11
2018-12-23T07:08:03.185Z,94.31
2018-12-23T07:09:03.221Z,94.01
2018-12-23T07:10:03.167Z,93.90
2018-12-23T07:11:03.179Z,94.01
2018-12-23T07:12:03.134Z,94.31
2018-12-23T07:13:03.122Z,94.01
2018-12-23T07:14:03.109Z,94.21
2018-12-23T07:15:03.113Z,93.65
2018-12-23T07:16:03.091Z,93.35
2018-12-23T07:17:03.100Z,93.44
2018-12-23T07:18:03.069Z,93.39
2018-12-23T07:19:03.057Z,93.35
2018-12-23T07:20:03.046Z,93.44
2018-12-23T07:21:03.042Z,92.93
2018-12-23T07:22:03.079Z,93.55
2018-12-23T07:23:03.007Z,93.35
2018-12-23T07:24:02.997Z,93.44
2018-12-23T07:25:02.998Z,93.44
2018-12-23T07:26:02.994Z,93.35
2018-12-23T07:27:02.969Z,93.55
2018-12-23T07:28:03.032Z,93.44
2018-12-23T07:29:02.967Z,93.55
2018-12-23T07:30:02.937Z,93.55
2018-12-23T07:31:02.926Z,93.55
2018-12-23T07:32:02.920Z,93.55
2018-12-23T07:33:03.001Z,93.24
2018-12-23T07:34:02.903Z,93.65
2018-12-23T07:35:02.908Z,93.44
2018-12-23T07:36:02.868Z,93.44
2018-12-23T07:37:02.861Z,93.24
2018-12-23T07:38:05.010Z,93.24
2018-12-23T07:39:02.846Z,93.24
2018-12-23T07:40:02.848Z,93.51
2018-12-23T07:41:02.919Z,93.14
2018-12-23T07:42:02.805Z,93.04
2018-12-23T07:43:02.803Z,92.99
2018-12-23T07:44:02.829Z,92.69
2018-12-23T07:45:02.765Z,92.83
2018-12-23T07:46:02.758Z,92.58
2018-12-23T07:47:02.753Z,92.69
2018-12-23T07:48:02.735Z,93.10
2018-12-23T07:49:02.747Z,92.99
2018-12-23T07:50:02.745Z,92.27
2018-12-23T07:51:02.704Z,92.58
2018-12-23T07:52:02.694Z,92.58
2018-12-23T07:53:02.686Z,92.48
2018-12-23T07:54:02.674Z,92.38
2018-12-23T07:55:02.720Z,92.73
2018-12-23T07:56:02.653Z,92.58
2018-12-23T07:57:02.636Z,92.27
2018-12-23T07:58:02.625Z,92.42
2018-12-23T07:59:02.635Z,92.69
2018-12-23T08:00:02.604Z,92.69
2018-12-23T08:01:02.594Z,92.63
2018-12-23T08:02:02.619Z,92.38
2018-12-23T08:03:02.569Z,92.58
2018-12-23T08:04:02.564Z,92.58
2018-12-23T08:05:02.616Z,92.58
2018-12-23T08:06:02.540Z,92.48
2018-12-23T08:07:02.531Z,92.58
2018-12-23T08:08:02.516Z,92.48
2018-12-23T08:09:02.519Z,92.69
2018-12-23T08:10:02.495Z,92.58
2018-12-23T08:11:02.495Z,92.69
2018-12-23T08:12:02.480Z,92.69
2018-12-23T08:13:02.468Z,92.48
2018-12-23T08:14:02.451Z,92.27
2018-12-23T08:15:02.570Z,91.86
2018-12-23T08:16:02.458Z,92.17
2018-12-23T08:17:02.417Z,92.38
2018-12-23T08:18:02.406Z,92.07
2018-12-23T08:19:02.390Z,91.86
2018-12-23T08:20:02.380Z,92.17
2018-12-23T08:21:02.497Z,91.93
2018-12-23T08:22:02.391Z,91.76
2018-12-23T08:23:02.349Z,91.76
2018-12-23T08:24:02.339Z,92.23
2018-12-23T08:25:02.332Z,91.82
2018-12-23T08:26:02.322Z,91.76
2018-12-23T08:27:02.320Z,91.97
2018-12-23T08:28:02.320Z,92.03
2018-12-23T08:29:02.327Z,92.13
2018-12-23T08:30:02.278Z,92.23
2018-12-23T08:31:02.264Z,92.23
2018-12-23T08:32:02.258Z,92.07
2018-12-23T08:33:02.238Z,92.17
2018-12-23T08:34:02.253Z,92.48
2018-12-23T08:35:02.217Z,92.44
2018-12-23T08:36:02.228Z,91.72
2018-12-23T08:37:02.197Z,92.33
2018-12-23T08:38:02.208Z,91.82
2018-12-23T08:39:02.188Z,91.51
2018-12-23T08:40:02.165Z,92.33
2018-12-23T08:41:02.150Z,91.82
2018-12-23T08:42:02.155Z,92.33
2018-12-23T08:43:02.130Z,92.33
2018-12-23T08:44:02.138Z,91.82
2018-12-23T08:45:02.262Z,91.82
2018-12-23T08:46:02.103Z,91.20
2018-12-23T08:47:02.087Z,91.72
2018-12-23T08:48:02.076Z,91.82
2018-12-23T08:49:02.157Z,91.72
2018-12-23T08:50:02.055Z,92.03
2018-12-23T08:51:02.066Z,91.82
2018-12-23T08:52:02.046Z,91.20
2018-12-23T08:53:02.051Z,91.41
2018-12-23T08:54:02.019Z,91.61
2018-12-23T08:55:02.027Z,91.61
2018-12-23T08:56:01.985Z,91.82
2018-12-23T08:57:02.010Z,92.13
2018-12-23T08:58:01.996Z,92.23
2018-12-23T08:59:01.955Z,92.33
2018-12-23T09:00:01.944Z,91.41
2018-12-23T09:01:01.984Z,91.57
2018-12-23T09:02:01.979Z,91.31
2018-12-23T09:03:01.928Z,91.61
2018-12-23T09:04:01.919Z,91.41
2018-12-23T09:05:01.886Z,91.51
2018-12-23T09:06:01.886Z,91.82
2018-12-23T09:07:01.899Z,91.72
2018-12-23T09:08:01.858Z,91.37
2018-12-23T09:09:01.865Z,91.00
2018-12-23T09:10:01.832Z,91.16
2018-12-23T09:11:01.823Z,91.27
2018-12-23T09:12:01.814Z,90.89
2018-12-23T09:13:01.806Z,90.48
2018-12-23T09:14:01.824Z,91.06
2018-12-23T09:15:01.787Z,91.16
2018-12-23T09:16:01.773Z,91.00
2018-12-23T09:17:01.949Z,90.44
2018-12-23T09:18:01.749Z,91.00
2018-12-23T09:19:01.737Z,90.75
2018-12-23T09:20:01.804Z,91.16
2018-12-23T09:21:01.726Z,91.27
2018-12-23T09:22:01.703Z,90.85
2018-12-23T09:23:01.701Z,90.65
2018-12-23T09:24:01.697Z,90.85
2018-12-23T09:25:01.861Z,90.34
2018-12-23T09:26:01.669Z,90.75
2018-12-23T09:27:01.654Z,90.24
2018-12-23T09:28:01.647Z,90.44
2018-12-23T09:29:01.633Z,90.14
2018-12-23T09:30:01.646Z,90.34
2018-12-23T09:31:01.636Z,90.34
2018-12-23T09:32:01.595Z,90.34
2018-12-23T09:33:01.603Z,90.65
2018-12-23T09:34:01.573Z,90.34
2018-12-23T09:35:01.561Z,90.34
2018-12-23T09:36:01.595Z,90.44
2018-12-23T09:37:01.548Z,90.44
2018-12-23T09:38:01.907Z,90.75
2018-12-23T09:39:01.518Z,90.24
2018-12-23T09:40:01.512Z,90.44
2018-12-23T09:41:01.609Z,90.24
2018-12-23T09:42:01.523Z,90.44
2018-12-23T09:43:01.476Z,90.75
2018-12-23T09:44:01.505Z,90.14
2018-12-23T09:45:01.467Z,90.55
2018-12-23T09:46:01.439Z,90.14
2018-12-23T09:47:01.439Z,89.93
2018-12-23T09:48:01.437Z,90.14
2018-12-23T09:49:01.406Z,90.44
2018-12-23T09:50:01.405Z,90.44
2018-12-23T09:51:01.391Z,90.14
2018-12-23T09:52:01.376Z,90.44
2018-12-23T09:53:01.434Z,90.50
2018-12-23T09:54:01.363Z,90.24
2018-12-23T09:55:01.344Z,90.44
2018-12-23T09:56:01.337Z,90.65
2018-12-23T09:57:01.434Z,90.03
2018-12-23T09:58:01.314Z,89.93
2018-12-23T09:59:01.322Z,90.65
2018-12-23T10:00:01.393Z,90.61
2018-12-23T10:01:01.302Z,90.65
2018-12-23T10:02:01.271Z,89.42
2018-12-23T10:03:01.255Z,89.27
2018-12-23T10:04:01.247Z,89.42
2018-12-23T10:05:01.234Z,89.62
2018-12-23T10:06:08.430Z,89.62
2018-12-23T10:07:01.240Z,90.61
2018-12-23T10:08:09.785Z,90.65
2018-12-23T10:09:02.199Z,90.03
2018-12-23T10:10:01.175Z,90.03
2018-12-23T10:11:01.169Z,89.58
2018-12-23T10:12:01.173Z,89.52
2018-12-23T10:13:01.188Z,89.62
2018-12-23T10:14:01.162Z,89.58
2018-12-23T10:15:08.323Z,89.27
2018-12-23T10:16:01.112Z,89.37
2018-12-23T10:17:01.123Z,89.37
2018-12-23T10:18:01.891Z,89.37
2018-12-23T10:19:01.080Z,89.27
2018-12-23T10:20:01.064Z,88.96
2018-12-23T10:21:01.117Z,89.48
2018-12-23T10:22:01.043Z,89.27
2018-12-23T10:23:01.050Z,89.17
2018-12-23T10:24:01.026Z,89.07
2018-12-23T10:25:01.020Z,89.17
2018-12-23T10:26:01.009Z,89.37
2018-12-23T10:27:00.994Z,89.27
2018-12-23T10:28:00.982Z,89.07
2018-12-23T10:29:00.999Z,89.17
2018-12-23T10:30:00.957Z,89.27
2018-12-23T10:31:01.042Z,89.17
2018-12-23T10:32:00.951Z,89.48
2018-12-23T10:33:00.941Z,89.17
2018-12-23T10:34:01.079Z,89.07
2018-12-23T10:35:00.942Z,88.96
2018-12-23T10:36:00.906Z,89.07
2018-12-23T10:37:00.970Z,88.96
2018-12-23T10:38:00.870Z,89.58
2018-12-23T10:39:00.861Z,88.76
2018-12-23T10:40:00.850Z,88.66
2018-12-23T10:41:00.858Z,88.86
2018-12-23T10:42:00.838Z,88.76
2018-12-23T10:43:01.435Z,88.66
2018-12-23T10:44:00.807Z,88.96
2018-12-23T10:45:00.801Z,89.27
2018-12-23T10:46:00.777Z,89.27
2018-12-23T10:47:00.776Z,89.27
2018-12-23T10:48:00.752Z,89.27
2018-12-23T10:49:00.772Z,89.07
2018-12-23T10:50:00.744Z,89.37
2018-12-23T10:51:00.724Z,89.07
2018-12-23T10:52:00.713Z,89.37
2018-12-23T10:53:00.730Z,89.27
2018-12-23T10:54:00.688Z,89.48
2018-12-23T10:55:00.714Z,89.69
2018-12-23T10:56:00.672Z,89.48
2018-12-23T10:57:00.671Z,89.78
2018-12-23T10:58:00.648Z,90.20
2018-12-23T10:59:00.641Z,90.30
2018-12-23T11:00:00.624Z,90.09
2018-12-23T11:01:00.632Z,90.20
2018-12-23T11:02:00.607Z,90.75
2018-12-23T11:03:00.595Z,90.30
2018-12-23T11:04:00.591Z,90.24
2018-12-23T11:05:00.689Z,90.65
2018-12-23T11:06:00.559Z,90.30
2018-12-23T11:07:00.544Z,90.24
2018-12-23T11:08:00.567Z,91.27
2018-12-23T11:09:00.529Z,90.40
2018-12-23T11:10:02.264Z,91.37
2018-12-23T11:11:00.504Z,91.22
2018-12-23T11:12:00.505Z,91.12
2018-12-23T11:13:00.508Z,90.91
2018-12-23T11:14:00.509Z,91.33
2018-12-23T11:15:00.460Z,91.16
2018-12-23T11:16:00.454Z,91.37
2018-12-23T11:17:00.503Z,91.22
2018-12-23T11:18:00.425Z,91.33
2018-12-23T11:19:00.438Z,91.12
2018-12-23T11:20:00.497Z,91.37
2018-12-23T11:21:00.395Z,91.16
2018-12-23T11:22:00.389Z,91.37
2018-12-23T11:23:00.366Z,91.22
2018-12-23T11:24:00.400Z,91.33
2018-12-23T11:25:00.348Z,91.16
2018-12-23T11:26:00.342Z,91.57
2018-12-23T11:27:00.329Z,91.47
2018-12-23T11:28:00.311Z,92.29
2018-12-23T11:29:00.304Z,91.88
2018-12-23T11:30:00.330Z,92.19
2018-12-23T11:31:00.280Z,92.19
2018-12-23T11:32:00.278Z,92.08
2018-12-23T11:33:00.344Z,92.19
2018-12-23T11:34:00.247Z,91.88
2018-12-23T11:35:00.276Z,91.99
2018-12-23T11:36:00.226Z,92.40
2018-12-23T11:37:00.225Z,92.29
2018-12-23T11:38:00.243Z,92.60
2018-12-23T11:39:00.224Z,92.60
2018-12-23T11:40:00.246Z,92.19
2018-12-23T11:41:00.181Z,92.40
2018-12-23T11:42:00.167Z,92.60
2018-12-23T11:43:00.153Z,92.40
2018-12-23T11:44:00.145Z,92.40
2018-12-23T11:45:00.279Z,92.29
2018-12-23T11:46:00.250Z,92.80
2018-12-23T11:47:00.116Z,92.91
2018-12-23T11:48:00.105Z,93.12
2018-12-23T11:49:00.235Z,93.12
2018-12-23T11:50:00.155Z,93.21
2018-12-23T11:51:00.058Z,92.80
2018-12-23T11:52:00.111Z,93.21
2018-12-23T11:53:00.035Z,93.21
2018-12-23T11:54:00.024Z,93.21
2018-12-23T11:55:00.084Z,93.42
2018-12-23T11:56:00.021Z,93.21
2018-12-23T11:57:00.217Z,93.52
2018-12-23T11:57:59.979Z,93.32
2018-12-23T11:58:59.969Z,93.42
2018-12-23T11:59:59.969Z,93.42
2018-12-23T12:00:59.960Z,92.80
2018-12-23T12:01:59.955Z,93.21
2018-12-23T12:02:59.991Z,93.42
2018-12-23T12:03:59.924Z,93.42
2018-12-23T12:04:59.905Z,92.80
2018-12-23T12:05:59.889Z,93.16
2018-12-23T12:06:59.885Z,93.26
2018-12-23T12:07:59.868Z,93.46
2018-12-23T12:09:06.881Z,93.05
2018-12-23T12:10:00.877Z,93.46
2018-12-23T12:10:59.873Z,93.16
2018-12-23T12:11:59.836Z,93.52
2018-12-23T12:12:59.869Z,92.95
2018-12-23T12:13:59.834Z,93.26
2018-12-23T12:14:59.787Z,93.36
2018-12-23T12:15:59.800Z,93.98
2018-12-23T12:16:59.801Z,93.87
2018-12-23T12:17:59.760Z,93.67
2018-12-23T12:18:59.756Z,93.71
2018-12-23T12:19:59.737Z,94.08
2018-12-23T12:20:59.729Z,93.82
2018-12-23T12:21:59.712Z,94.12
2018-12-23T12:22:59.734Z,94.12
2018-12-23T12:23:59.690Z,94.02
2018-12-23T12:24:59.699Z,94.84
2018-12-23T12:25:59.672Z,94.84
2018-12-23T12:26:59.660Z,94.95
2018-12-23T12:27:59.687Z,94.84
2018-12-23T12:28:59.649Z,94.90
2018-12-23T12:29:59.633Z,95.05
2018-12-23T12:30:59.636Z,95.25
2018-12-23T12:31:59.629Z,95.46
2018-12-23T12:32:59.599Z,95.77
2018-12-23T12:33:59.609Z,95.46
2018-12-23T12:34:59.571Z,95.67
2018-12-23T12:35:59.566Z,95.56
2018-12-23T12:36:59.565Z,95.56
2018-12-23T12:37:59.572Z,95.77
2018-12-23T12:38:59.537Z,95.46
2018-12-23T12:39:59.526Z,95.36
2018-12-23T12:40:59.538Z,95.36
2018-12-23T12:41:59.502Z,95.67
2018-12-23T12:42:59.493Z,95.77
2018-12-23T12:43:59.509Z,95.77
2018-12-23T12:44:59.510Z,95.77
2018-12-23T12:46:00.581Z,95.97
2018-12-23T12:46:59.441Z,95.93
2018-12-23T12:47:59.431Z,95.77
2018-12-23T12:48:59.429Z,95.72
2018-12-23T12:49:59.473Z,95.46
2018-12-23T12:50:59.415Z,95.56
2018-12-23T12:51:59.389Z,95.56